Terminal Aerodrome Forecast
Issued by NWS

Home | Current Version | Previous Version | Graphics & Text | Print | Product List | Glossary On
Versions: 1 2 3 4 5 6 7 8 9 10 11 12 13
000
FTUS43 KOAX 301733
TAFCDR
TAF
KCDR 301733Z 3018/0118 33008KT P6SM FEW070
     FM302200 03015G25KT P6SM VCTS BKN070CB
      TEMPO 3022/0102 VRB25G35KT 5SM -TSRA BKN035CB
     FM010200 VRB03KT P6SM VCSH BKN050=

USA.gov is the U.S. government's official web portal to all federal, state and local government web resources and services.